sensor_id;sensor_type;location;lat;lon;timestamp;pressure;altitude;pressure_sealevel;temperature;humidity
65880;BME280;52661;51.364;6.054;2023-04-10T00:01:09;101775.66;;;10.77;85.76
65880;BME280;52661;51.364;6.054;2023-04-10T00:03:34;101774.09;;;10.76;85.85
65880;BME280;52661;51.364;6.054;2023-04-10T00:06:00;101772.88;;;10.74;84.99
65880;BME280;52661;51.364;6.054;2023-04-10T00:08:25;101774.03;;;10.73;85.70
65880;BME280;52661;51.364;6.054;2023-04-10T00:10:50;101764.69;;;10.70;85.96
65880;BME280;52661;51.364;6.054;2023-04-10T00:13:18;101760.75;;;10.68;85.71
65880;BME280;52661;51.364;6.054;2023-04-10T00:15:43;101762.63;;;10.64;85.91
65880;BME280;52661;51.364;6.054;2023-04-10T00:18:10;101765.81;;;10.69;85.85
65880;BME280;52661;51.364;6.054;2023-04-10T00:20:36;101767.56;;;10.58;85.88
65880;BME280;52661;51.364;6.054;2023-04-10T00:23:01;101769.94;;;10.60;86.22
65880;BME280;52661;51.364;6.054;2023-04-10T00:25:26;101767.22;;;10.60;86.50
65880;BME280;52661;51.364;6.054;2023-04-10T00:27:52;101763.28;;;10.57;86.19
65880;BME280;52661;51.364;6.054;2023-04-10T00:30:18;101755.88;;;10.54;86.89
65880;BME280;52661;51.364;6.054;2023-04-10T00:32:45;101743.75;;;10.48;86.09
65880;BME280;52661;51.364;6.054;2023-04-10T00:35:10;101744.16;;;10.50;86.97
65880;BME280;52661;51.364;6.054;2023-04-10T00:37:36;101744.53;;;10.49;86.87
65880;BME280;52661;51.364;6.054;2023-04-10T00:40:02;101728.50;;;10.40;86.34
65880;BME280;52661;51.364;6.054;2023-04-10T00:42:27;101725.44;;;10.42;86.89
65880;BME280;52661;51.364;6.054;2023-04-10T00:44:52;101717.63;;;10.40;87.62
65880;BME280;52661;51.364;6.054;2023-04-10T00:47:18;101727.72;;;10.40;87.07
65880;BME280;52661;51.364;6.054;2023-04-10T00:49:43;101732.34;;;10.39;87.55
65880;BME280;52661;51.364;6.054;2023-04-10T00:52:09;101723.78;;;10.37;87.72
65880;BME280;52661;51.364;6.054;2023-04-10T00:54:35;101714.81;;;10.33;87.20
65880;BME280;52661;51.364;6.054;2023-04-10T00:57:01;101708.81;;;10.24;87.97
65880;BME280;52661;51.364;6.054;2023-04-10T00:59:27;101716.72;;;10.32;87.78
65880;BME280;52661;51.364;6.054;2023-04-10T01:01:53;101707.41;;;10.30;87.68
65880;BME280;52661;51.364;6.054;2023-04-10T01:04:19;101693.78;;;10.26;88.51
65880;BME280;52661;51.364;6.054;2023-04-10T01:07:10;101695.38;;;10.31;88.45
65880;BME280;52661;51.364;6.054;2023-04-10T01:09:51;101697.31;;;10.30;88.52
65880;BME280;52661;51.364;6.054;2023-04-10T01:15:05;101690.69;;;10.28;88.82
65880;BME280;52661;51.364;6.054;2023-04-10T01:20:26;101676.59;;;10.19;89.01
65880;BME280;52661;51.364;6.054;2023-04-10T01:26:01;101681.34;;;10.06;89.29
65880;BME280;52661;51.364;6.054;2023-04-10T01:31:12;101673.22;;;10.06;89.62
65880;BME280;52661;51.364;6.054;2023-04-10T01:33:48;101672.50;;;10.09;89.80
65880;BME280;52661;51.364;6.054;2023-04-10T01:36:21;101671.34;;;10.10;89.88
65880;BME280;52661;51.364;6.054;2023-04-10T01:38:49;101674.66;;;10.19;91.10
65880;BME280;52661;51.364;6.054;2023-04-10T01:41:17;101674.94;;;10.14;90.96
65880;BME280;52661;51.364;6.054;2023-04-10T01:43:47;101671.75;;;10.09;90.48
65880;BME280;52661;51.364;6.054;2023-04-10T01:46:15;101674.06;;;10.10;91.47
65880;BME280;52661;51.364;6.054;2023-04-10T01:48:43;101677.84;;;10.06;91.68
65880;BME280;52661;51.364;6.054;2023-04-10T01:51:09;101672.88;;;10.08;90.80
65880;BME280;52661;51.364;6.054;2023-04-10T01:53:36;101677.78;;;10.02;90.64
65880;BME280;52661;51.364;6.054;2023-04-10T01:56:03;101662.63;;;9.98;91.18
65880;BME280;52661;51.364;6.054;2023-04-10T01:58:29;101666.41;;;9.93;90.79
65880;BME280;52661;51.364;6.054;2023-04-10T02:00:54;101666.28;;;9.86;90.76
65880;BME280;52661;51.364;6.054;2023-04-10T02:03:20;101668.50;;;9.80;91.10
65880;BME280;52661;51.364;6.054;2023-04-10T02:08:17;101661.28;;;9.88;90.52
65880;BME280;52661;51.364;6.054;2023-04-10T02:10:51;101660.06;;;9.85;91.21
65880;BME280;52661;51.364;6.054;2023-04-10T02:13:20;101657.72;;;9.84;90.91
65880;BME280;52661;51.364;6.054;2023-04-10T02:15:47;101655.00;;;9.84;91.07
65880;BME280;52661;51.364;6.054;2023-04-10T02:18:15;101655.25;;;9.75;91.39
65880;BME280;52661;51.364;6.054;2023-04-10T02:20:42;101647.91;;;9.76;92.57
65880;BME280;52661;51.364;6.054;2023-04-10T02:23:08;101645.84;;;9.69;91.66
65880;BME280;52661;51.364;6.054;2023-04-10T02:25:34;101643.78;;;9.63;91.67
65880;BME280;52661;51.364;6.054;2023-04-10T02:28:03;101639.84;;;9.60;92.02
65880;BME280;52661;51.364;6.054;2023-04-10T02:30:29;101641.00;;;9.59;91.77
65880;BME280;52661;51.364;6.054;2023-04-10T02:32:54;101629.88;;;9.45;92.13
65880;BME280;52661;51.364;6.054;2023-04-10T02:35:20;101635.81;;;9.51;92.51
65880;BME280;52661;51.364;6.054;2023-04-10T02:37:46;101632.06;;;9.59;93.36
65880;BME280;52661;51.364;6.054;2023-04-10T02:40:11;101630.59;;;9.61;93.49
65880;BME280;52661;51.364;6.054;2023-04-10T02:42:37;101634.78;;;9.59;93.09
65880;BME280;52661;51.364;6.054;2023-04-10T02:45:02;101625.97;;;9.62;92.17
65880;BME280;52661;51.364;6.054;2023-04-10T02:47:28;101621.59;;;9.57;92.70
65880;BME280;52661;51.364;6.054;2023-04-10T02:49:53;101622.34;;;9.54;93.64
65880;BME280;52661;51.364;6.054;2023-04-10T02:52:18;101620.91;;;9.41;93.58
65880;BME280;52661;51.364;6.054;2023-04-10T02:54:44;101613.00;;;9.32;94.25
65880;BME280;52661;51.364;6.054;2023-04-10T02:57:09;101611.28;;;9.05;97.48
65880;BME280;52661;51.364;6.054;2023-04-10T02:59:35;101594.06;;;9.13;97.97
65880;BME280;52661;51.364;6.054;2023-04-10T03:02:00;101606.66;;;9.06;98.97
65880;BME280;52661;51.364;6.054;2023-04-10T03:04:25;101601.91;;;8.99;98.44
65880;BME280;52661;51.364;6.054;2023-04-10T03:06:51;101598.63;;;9.09;97.63
65880;BME280;52661;51.364;6.054;2023-04-10T03:09:17;101601.53;;;9.20;96.93
65880;BME280;52661;51.364;6.054;2023-04-10T03:11:42;101597.59;;;8.98;97.94
65880;BME280;52661;51.364;6.054;2023-04-10T03:14:07;101593.97;;;8.90;98.34
65880;BME280;52661;51.364;6.054;2023-04-10T03:16:36;101585.06;;;8.90;99.15
65880;BME280;52661;51.364;6.054;2023-04-10T03:19:01;101580.44;;;8.71;100.00
65880;BME280;52661;51.364;6.054;2023-04-10T03:21:26;101586.59;;;8.72;100.00
65880;BME280;52661;51.364;6.054;2023-04-10T03:23:52;101591.94;;;8.68;99.39
65880;BME280;52661;51.364;6.054;2023-04-10T03:26:18;101583.63;;;8.77;98.90
65880;BME280;52661;51.364;6.054;2023-04-10T03:28:43;101586.41;;;8.80;98.98
65880;BME280;52661;51.364;6.054;2023-04-10T03:31:09;101589.34;;;8.91;97.65
65880;BME280;52661;51.364;6.054;2023-04-10T03:33:36;101586.63;;;8.91;97.23
65880;BME280;52661;51.364;6.054;2023-04-10T03:36:03;101587.06;;;9.12;95.67
65880;BME280;52661;51.364;6.054;2023-04-10T03:38:28;101581.44;;;9.21;94.45
65880;BME280;52661;51.364;6.054;2023-04-10T03:40:53;101584.94;;;9.21;93.43
65880;BME280;52661;51.364;6.054;2023-04-10T03:43:19;101577.66;;;9.25;93.01
65880;BME280;52661;51.364;6.054;2023-04-10T03:45:44;101575.56;;;9.19;91.81
65880;BME280;52661;51.364;6.054;2023-04-10T03:48:11;101574.94;;;9.25;91.67
65880;BME280;52661;51.364;6.054;2023-04-10T03:50:36;101580.78;;;9.27;91.38
65880;BME280;52661;51.364;6.054;2023-04-10T03:53:02;101579.22;;;9.26;91.94
65880;BME280;52661;51.364;6.054;2023-04-10T03:55:27;101580.50;;;9.32;90.92
65880;BME280;52661;51.364;6.054;2023-04-10T03:57:52;101577.53;;;9.18;91.73
65880;BME280;52661;51.364;6.054;2023-04-10T04:00:19;101568.97;;;9.16;91.72
65880;BME280;52661;51.364;6.054;2023-04-10T04:02:44;101563.13;;;9.14;91.73
65880;BME280;52661;51.364;6.054;2023-04-10T04:05:10;101565.13;;;9.17;91.64
65880;BME280;52661;51.364;6.054;2023-04-10T04:07:35;101561.28;;;9.18;91.57
65880;BME280;52661;51.364;6.054;2023-04-10T04:10:01;101561.13;;;9.11;92.98
65880;BME280;52661;51.364;6.054;2023-04-10T04:12:26;101568.47;;;9.11;92.64
65880;BME280;52661;51.364;6.054;2023-04-10T04:14:52;101568.88;;;9.13;92.90
65880;BME280;52661;51.364;6.054;2023-04-10T04:17:17;101570.03;;;9.12;92.49
65880;BME280;52661;51.364;6.054;2023-04-10T04:19:43;101557.19;;;9.09;91.56
65880;BME280;52661;51.364;6.054;2023-04-10T04:22:09;101564.84;;;9.03;92.47
65880;BME280;52661;51.364;6.054;2023-04-10T04:24:35;101557.84;;;9.02;91.76
65880;BME280;52661;51.364;6.054;2023-04-10T04:27:00;101561.34;;;9.03;92.19
65880;BME280;52661;51.364;6.054;2023-04-10T04:29:26;101560.75;;;8.94;91.88
65880;BME280;52661;51.364;6.054;2023-04-10T04:31:52;101557.84;;;9.02;92.17
65880;BME280;52661;51.364;6.054;2023-04-10T04:34:17;101563.63;;;9.01;91.48
65880;BME280;52661;51.364;6.054;2023-04-10T04:36:42;101554.16;;;9.10;92.70
65880;BME280;52661;51.364;6.054;2023-04-10T04:39:08;101559.44;;;9.03;93.57
65880;BME280;52661;51.364;6.054;2023-04-10T04:41:33;101546.38;;;9.09;94.67
65880;BME280;52661;51.364;6.054;2023-04-10T04:44:03;101547.16;;;9.09;95.24
65880;BME280;52661;51.364;6.054;2023-04-10T04:46:28;101545.97;;;9.07;94.86
65880;BME280;52661;51.364;6.054;2023-04-10T04:48:54;101542.47;;;8.87;94.08
65880;BME280;52661;51.364;6.054;2023-04-10T04:51:19;101547.59;;;8.92;93.87
65880;BME280;52661;51.364;6.054;2023-04-10T04:53:44;101547.38;;;8.81;93.79
65880;BME280;52661;51.364;6.054;2023-04-10T04:56:10;101543.69;;;8.89;93.85
65880;BME280;52661;51.364;6.054;2023-04-10T04:58:35;101546.94;;;8.79;94.26
65880;BME280;52661;51.364;6.054;2023-04-10T05:01:01;101539.19;;;8.78;95.01
65880;BME280;52661;51.364;6.054;2023-04-10T05:03:26;101541.47;;;8.57;94.70
65880;BME280;52661;51.364;6.054;2023-04-10T05:05:56;101548.03;;;8.75;93.57
65880;BME280;52661;51.364;6.054;2023-04-10T05:08:22;101536.13;;;8.60;95.62
65880;BME280;52661;51.364;6.054;2023-04-10T05:10:47;101544.81;;;8.69;95.10
65880;BME280;52661;51.364;6.054;2023-04-10T05:13:12;101543.09;;;8.80;94.59
65880;BME280;52661;51.364;6.054;2023-04-10T05:15:39;101540.19;;;8.89;93.35
65880;BME280;52661;51.364;6.054;2023-04-10T05:18:05;101538.75;;;8.95;92.52
65880;BME280;52661;51.364;6.054;2023-04-10T05:20:33;101537.19;;;8.94;92.54
65880;BME280;52661;51.364;6.054;2023-04-10T05:22:58;101531.94;;;8.82;93.83
65880;BME280;52661;51.364;6.054;2023-04-10T05:25:24;101526.56;;;8.66;95.14
65880;BME280;52661;51.364;6.054;2023-04-10T05:27:49;101523.66;;;8.75;95.32
65880;BME280;52661;51.364;6.054;2023-04-10T05:30:15;101517.19;;;8.60;95.67
65880;BME280;52661;51.364;6.054;2023-04-10T05:32:40;101526.09;;;8.61;96.25
65880;BME280;52661;51.364;6.054;2023-04-10T05:35:06;101520.81;;;8.68;96.78
65880;BME280;52661;51.364;6.054;2023-04-10T05:37:31;101513.31;;;8.61;96.77
65880;BME280;52661;51.364;6.054;2023-04-10T05:39:57;101509.41;;;8.59;97.15
65880;BME280;52661;51.364;6.054;2023-04-10T05:42:23;101507.50;;;8.59;97.90
65880;BME280;52661;51.364;6.054;2023-04-10T05:44:48;101508.69;;;8.62;98.91
65880;BME280;52661;51.364;6.054;2023-04-10T05:47:14;101511.41;;;8.62;98.95
65880;BME280;52661;51.364;6.054;2023-04-10T05:49:40;101515.25;;;8.61;97.78
65880;BME280;52661;51.364;6.054;2023-04-10T05:52:05;101515.47;;;8.71;96.59
65880;BME280;52661;51.364;6.054;2023-04-10T05:54:30;101517.53;;;8.78;95.58
65880;BME280;52661;51.364;6.054;2023-04-10T05:56:56;101511.41;;;8.81;95.95
65880;BME280;52661;51.364;6.054;2023-04-10T05:59:22;101518.41;;;8.82;95.50
65880;BME280;52661;51.364;6.054;2023-04-10T06:01:47;101512.84;;;8.75;95.22
65880;BME280;52661;51.364;6.054;2023-04-10T06:04:12;101501.66;;;8.96;95.42
65880;BME280;52661;51.364;6.054;2023-04-10T06:06:38;101511.34;;;8.97;94.95
65880;BME280;52661;51.364;6.054;2023-04-10T06:09:04;101516.94;;;9.07;94.38
65880;BME280;52661;51.364;6.054;2023-04-10T06:11:30;101509.56;;;9.04;93.77
65880;BME280;52661;51.364;6.054;2023-04-10T06:13:55;101514.00;;;9.16;94.95
65880;BME280;52661;51.364;6.054;2023-04-10T06:16:21;101516.78;;;9.19;93.57
65880;BME280;52661;51.364;6.054;2023-04-10T06:18:46;101522.13;;;9.16;92.03
65880;BME280;52661;51.364;6.054;2023-04-10T06:21:12;101520.00;;;9.25;93.04
65880;BME280;52661;51.364;6.054;2023-04-10T06:23:38;101509.88;;;9.22;92.97
65880;BME280;52661;51.364;6.054;2023-04-10T06:26:04;101507.72;;;9.31;92.48
65880;BME280;52661;51.364;6.054;2023-04-10T06:28:29;101513.97;;;9.35;91.47
65880;BME280;52661;51.364;6.054;2023-04-10T06:30:55;101507.88;;;9.42;92.78
65880;BME280;52661;51.364;6.054;2023-04-10T06:33:21;101503.81;;;9.51;92.19
65880;BME280;52661;51.364;6.054;2023-04-10T06:35:46;101512.66;;;9.48;91.57
65880;BME280;52661;51.364;6.054;2023-04-10T06:38:12;101514.41;;;9.60;90.31
65880;BME280;52661;51.364;6.054;2023-04-10T06:40:37;101506.94;;;9.53;89.34
65880;BME280;52661;51.364;6.054;2023-04-10T06:43:02;101505.91;;;9.61;90.20
65880;BME280;52661;51.364;6.054;2023-04-10T06:45:28;101504.09;;;9.69;90.17
65880;BME280;52661;51.364;6.054;2023-04-10T06:47:53;101502.25;;;9.73;90.31
65880;BME280;52661;51.364;6.054;2023-04-10T06:50:19;101501.13;;;9.77;89.60
65880;BME280;52661;51.364;6.054;2023-04-10T06:52:45;101496.97;;;9.83;89.09
65880;BME280;52661;51.364;6.054;2023-04-10T06:55:10;101499.00;;;9.90;88.61
65880;BME280;52661;51.364;6.054;2023-04-10T06:57:39;101487.84;;;9.95;87.30
65880;BME280;52661;51.364;6.054;2023-04-10T07:00:06;101489.91;;;10.02;87.88
65880;BME280;52661;51.364;6.054;2023-04-10T07:02:32;101488.44;;;10.08;87.55
65880;BME280;52661;51.364;6.054;2023-04-10T07:04:57;101486.91;;;10.10;87.25
65880;BME280;52661;51.364;6.054;2023-04-10T07:07:23;101480.06;;;10.16;88.00
65880;BME280;52661;51.364;6.054;2023-04-10T07:09:48;101478.63;;;10.26;86.98
65880;BME280;52661;51.364;6.054;2023-04-10T07:12:13;101472.81;;;10.27;87.99
65880;BME280;52661;51.364;6.054;2023-04-10T07:14:39;101470.16;;;10.31;86.84
65880;BME280;52661;51.364;6.054;2023-04-10T07:17:05;101470.59;;;10.33;87.28
65880;BME280;52661;51.364;6.054;2023-04-10T07:19:30;101460.56;;;10.37;86.82
65880;BME280;52661;51.364;6.054;2023-04-10T07:21:56;101454.78;;;10.42;85.48
65880;BME280;52661;51.364;6.054;2023-04-10T07:24:21;101452.16;;;10.49;85.21
65880;BME280;52661;51.364;6.054;2023-04-10T07:26:47;101451.84;;;10.54;84.28
65880;BME280;52661;51.364;6.054;2023-04-10T07:29:12;101455.34;;;10.55;86.88
65880;BME280;52661;51.364;6.054;2023-04-10T07:31:38;101443.72;;;10.54;84.62
65880;BME280;52661;51.364;6.054;2023-04-10T07:34:04;101441.13;;;10.65;85.99
65880;BME280;52661;51.364;6.054;2023-04-10T07:36:29;101430.25;;;10.65;85.14
65880;BME280;52661;51.364;6.054;2023-04-10T07:38:55;101431.91;;;10.73;85.90
65880;BME280;52661;51.364;6.054;2023-04-10T07:41:21;101435.47;;;10.80;85.32
65880;BME280;52661;51.364;6.054;2023-04-10T07:43:46;101427.28;;;10.77;84.45
65880;BME280;52661;51.364;6.054;2023-04-10T07:46:12;101426.88;;;10.75;83.93
65880;BME280;52661;51.364;6.054;2023-04-10T07:48:37;101421.44;;;10.75;83.70
65880;BME280;52661;51.364;6.054;2023-04-10T07:51:03;101428.44;;;10.76;84.95
65880;BME280;52661;51.364;6.054;2023-04-10T07:53:28;101425.69;;;10.72;83.80
65880;BME280;52661;51.364;6.054;2023-04-10T07:55:54;101415.19;;;10.71;83.14
65880;BME280;52661;51.364;6.054;2023-04-10T07:58:20;101411.72;;;10.70;84.12
65880;BME280;52661;51.364;6.054;2023-04-10T08:00:45;101409.06;;;10.77;83.80
65880;BME280;52661;51.364;6.054;2023-04-10T08:03:11;101414.50;;;10.77;84.75
65880;BME280;52661;51.364;6.054;2023-04-10T08:05:39;101404.84;;;10.83;84.63
65880;BME280;52661;51.364;6.054;2023-04-10T08:08:05;101403.34;;;10.90;85.46
65880;BME280;52661;51.364;6.054;2023-04-10T08:10:30;101404.22;;;10.97;84.70
65880;BME280;52661;51.364;6.054;2023-04-10T08:12:55;101398.41;;;10.99;84.68
65880;BME280;52661;51.364;6.054;2023-04-10T08:15:21;101395.03;;;11.12;85.45
65880;BME280;52661;51.364;6.054;2023-04-10T08:17:46;101392.00;;;11.21;84.75
65880;BME280;52661;51.364;6.054;2023-04-10T08:20:12;101385.91;;;11.34;83.79
65880;BME280;52661;51.364;6.054;2023-04-10T08:22:37;101379.69;;;11.34;82.55
65880;BME280;52661;51.364;6.054;2023-04-10T08:25:04;101379.41;;;11.46;82.15
65880;BME280;52661;51.364;6.054;2023-04-10T08:27:29;101372.13;;;11.61;82.54
65880;BME280;52661;51.364;6.054;2023-04-10T08:29:55;101370.28;;;11.75;80.99
65880;BME280;52661;51.364;6.054;2023-04-10T08:32:20;101369.94;;;11.84;80.13
65880;BME280;52661;51.364;6.054;2023-04-10T08:34:46;101371.94;;;11.98;81.49
65880;BME280;52661;51.364;6.054;2023-04-10T08:37:11;101363.41;;;11.99;79.14
65880;BME280;52661;51.364;6.054;2023-04-10T08:39:39;101363.06;;;12.04;80.49
65880;BME280;52661;51.364;6.054;2023-04-10T08:42:05;101360.34;;;12.08;79.77
65880;BME280;52661;51.364;6.054;2023-04-10T08:44:31;101358.81;;;12.17;79.85
65880;BME280;52661;51.364;6.054;2023-04-10T08:46:58;101363.13;;;12.22;78.81
65880;BME280;52661;51.364;6.054;2023-04-10T08:51:57;101358.06;;;12.24;80.07
65880;BME280;52661;51.364;6.054;2023-04-10T08:54:32;101367.00;;;12.24;80.17
65880;BME280;52661;51.364;6.054;2023-04-10T08:56:57;101359.22;;;12.30;80.56
65880;BME280;52661;51.364;6.054;2023-04-10T08:59:27;101367.84;;;12.43;80.93
65880;BME280;52661;51.364;6.054;2023-04-10T09:01:52;101359.31;;;12.48;79.95
65880;BME280;52661;51.364;6.054;2023-04-10T09:04:18;101366.31;;;12.59;78.79
65880;BME280;52661;51.364;6.054;2023-04-10T09:06:43;101368.31;;;12.69;77.59
65880;BME280;52661;51.364;6.054;2023-04-10T09:09:08;101364.41;;;12.77;76.11
65880;BME280;52661;51.364;6.054;2023-04-10T09:14:24;101352.34;;;13.03;78.04
65880;BME280;52661;51.364;6.054;2023-04-10T09:16:52;101354.34;;;13.10;75.22
65880;BME280;52661;51.364;6.054;2023-04-10T09:19:31;101354.75;;;13.12;73.56
65880;BME280;52661;51.364;6.054;2023-04-10T09:21:56;101345.78;;;13.11;74.57
65880;BME280;52661;51.364;6.054;2023-04-10T09:24:22;101345.00;;;13.18;76.55
65880;BME280;52661;51.364;6.054;2023-04-10T09:26:48;101349.28;;;13.26;74.76
65880;BME280;52661;51.364;6.054;2023-04-10T09:29:13;101343.81;;;13.22;73.88
65880;BME280;52661;51.364;6.054;2023-04-10T09:31:41;101334.88;;;13.25;76.53
65880;BME280;52661;51.364;6.054;2023-04-10T09:34:19;101330.19;;;13.37;77.51
65880;BME280;52661;51.364;6.054;2023-04-10T09:36:53;101329.78;;;13.42;76.31
65880;BME280;52661;51.364;6.054;2023-04-10T09:39:20;101332.50;;;13.49;75.34
65880;BME280;52661;51.364;6.054;2023-04-10T09:41:53;101327.03;;;13.56;76.43
65880;BME280;52661;51.364;6.054;2023-04-10T09:44:30;101322.72;;;13.62;76.98
65880;BME280;52661;51.364;6.054;2023-04-10T09:46:57;101317.63;;;13.64;75.28
65880;BME280;52661;51.364;6.054;2023-04-10T09:49:22;101314.88;;;13.71;74.97
65880;BME280;52661;51.364;6.054;2023-04-10T09:51:48;101318.38;;;13.78;75.97
65880;BME280;52661;51.364;6.054;2023-04-10T09:54:14;101304.69;;;13.89;77.79
65880;BME280;52661;51.364;6.054;2023-04-10T09:56:40;101303.13;;;13.95;76.68
65880;BME280;52661;51.364;6.054;2023-04-10T09:59:07;101302.28;;;14.05;74.08
65880;BME280;52661;51.364;6.054;2023-04-10T10:01:33;101286.59;;;14.23;70.06
65880;BME280;52661;51.364;6.054;2023-04-10T10:04:02;101286.97;;;14.22;70.51
65880;BME280;52661;51.364;6.054;2023-04-10T10:06:32;101280.31;;;14.30;68.66
65880;BME280;52661;51.364;6.054;2023-04-10T10:09:02;101270.16;;;14.30;69.41
65880;BME280;52661;51.364;6.054;2023-04-10T10:11:29;101269.00;;;14.28;71.29
65880;BME280;52661;51.364;6.054;2023-04-10T10:13:57;101267.03;;;14.32;69.07
65880;BME280;52661;51.364;6.054;2023-04-10T10:24:09;101247.47;;;14.44;70.04
65880;BME280;52661;51.364;6.054;2023-04-10T10:26:38;101240.00;;;14.52;68.96
65880;BME280;52661;51.364;6.054;2023-04-10T10:31:36;101236.47;;;14.51;68.17
65880;BME280;52661;51.364;6.054;2023-04-10T10:34:12;101236.09;;;14.53;68.32
65880;BME280;52661;51.364;6.054;2023-04-10T10:36:39;101231.78;;;14.55;69.03
65880;BME280;52661;51.364;6.054;2023-04-10T10:41:59;101235.63;;;14.61;67.80
65880;BME280;52661;51.364;6.054;2023-04-10T10:44:34;101230.56;;;14.60;68.25
65880;BME280;52661;51.364;6.054;2023-04-10T10:47:19;101221.16;;;14.64;68.68
65880;BME280;52661;51.364;6.054;2023-04-10T10:49:58;101207.44;;;14.71;68.82
65880;BME280;52661;51.364;6.054;2023-04-10T10:52:45;101203.47;;;14.76;69.66
65880;BME280;52661;51.364;6.054;2023-04-10T10:55:26;101201.50;;;14.80;68.45
65880;BME280;52661;51.364;6.054;2023-04-10T10:57:57;101191.28;;;14.88;69.30
65880;BME280;52661;51.364;6.054;2023-04-10T11:00:25;101190.03;;;14.96;68.59
65880;BME280;52661;51.364;6.054;2023-04-10T11:05:50;101188.56;;;15.21;69.43
65880;BME280;52661;51.364;6.054;2023-04-10T11:08:16;101181.81;;;15.33;68.31
65880;BME280;52661;51.364;6.054;2023-04-10T11:11:04;101184.81;;;15.42;66.03
65880;BME280;52661;51.364;6.054;2023-04-10T11:13:31;101172.97;;;15.52;65.25
65880;BME280;52661;51.364;6.054;2023-04-10T11:15:58;101180.09;;;15.43;63.06
65880;BME280;52661;51.364;6.054;2023-04-10T11:31:47;101154.06;;;15.65;62.37
65880;BME280;52661;51.364;6.054;2023-04-10T11:34:19;101144.97;;;15.71;62.46
65880;BME280;52661;51.364;6.054;2023-04-10T11:36:44;101142.03;;;15.86;62.81
65880;BME280;52661;51.364;6.054;2023-04-10T11:39:19;101132.91;;;15.92;61.30
65880;BME280;52661;51.364;6.054;2023-04-10T11:41:50;101137.63;;;15.92;60.94
65880;BME280;52661;51.364;6.054;2023-04-10T11:46:51;101135.53;;;16.26;61.18
65880;BME280;52661;51.364;6.054;2023-04-10T11:49:28;101124.25;;;16.44;62.48
65880;BME280;52661;51.364;6.054;2023-04-10T11:51:54;101129.25;;;16.49;60.69
65880;BME280;52661;51.364;6.054;2023-04-10T11:54:24;101123.41;;;16.47;57.72
65880;BME280;52661;51.364;6.054;2023-04-10T11:57:01;101117.47;;;16.52;57.83
65880;BME280;52661;51.364;6.054;2023-04-10T11:59:28;101117.66;;;16.41;56.60
65880;BME280;52661;51.364;6.054;2023-04-10T12:02:05;101120.34;;;16.45;57.79
65880;BME280;52661;51.364;6.054;2023-04-10T12:04:32;101115.88;;;16.31;57.49
65880;BME280;52661;51.364;6.054;2023-04-10T12:06:57;101116.50;;;16.39;59.15
65880;BME280;52661;51.364;6.054;2023-04-10T12:09:23;101107.66;;;16.31;57.04
65880;BME280;52661;51.364;6.054;2023-04-10T12:11:52;101108.34;;;16.35;58.18
65880;BME280;52661;51.364;6.054;2023-04-10T12:14:19;101106.31;;;16.39;58.31
65880;BME280;52661;51.364;6.054;2023-04-10T12:16:45;101105.97;;;16.37;59.33
65880;BME280;52661;51.364;6.054;2023-04-10T12:19:13;101107.78;;;16.24;57.49
65880;BME280;52661;51.364;6.054;2023-04-10T12:21:40;101100.03;;;16.19;57.26
65880;BME280;52661;51.364;6.054;2023-04-10T12:24:09;101094.19;;;16.17;58.81
65880;BME280;52661;51.364;6.054;2023-04-10T12:26:35;101095.81;;;16.14;57.82
65880;BME280;52661;51.364;6.054;2023-04-10T12:29:01;101083.59;;;16.19;57.89
65880;BME280;52661;51.364;6.054;2023-04-10T12:31:35;101092.53;;;16.23;57.02
65880;BME280;52661;51.364;6.054;2023-04-10T12:34:02;101077.94;;;16.30;56.94
65880;BME280;52661;51.364;6.054;2023-04-10T12:36:30;101071.84;;;16.42;58.63
65880;BME280;52661;51.364;6.054;2023-04-10T12:39:02;101077.34;;;16.42;58.08
65880;BME280;52661;51.364;6.054;2023-04-10T12:41:30;101070.72;;;16.39;58.11
65880;BME280;52661;51.364;6.054;2023-04-10T12:44:05;101064.94;;;16.34;57.44
65880;BME280;52661;51.364;6.054;2023-04-10T12:46:31;101059.28;;;16.44;58.06
65880;BME280;52661;51.364;6.054;2023-04-10T12:49:14;101058.44;;;16.47;57.19
65880;BME280;52661;51.364;6.054;2023-04-10T12:51:50;101052.63;;;16.65;56.81
65880;BME280;52661;51.364;6.054;2023-04-10T12:54:32;101051.44;;;16.66;55.52
65880;BME280;52661;51.364;6.054;2023-04-10T12:56:59;101052.16;;;16.70;56.13
65880;BME280;52661;51.364;6.054;2023-04-10T12:59:25;101046.25;;;16.71;55.88
65880;BME280;52661;51.364;6.054;2023-04-10T13:01:51;101045.34;;;16.78;56.01
65880;BME280;52661;51.364;6.054;2023-04-10T13:04:17;101035.72;;;16.70;55.88
65880;BME280;52661;51.364;6.054;2023-04-10T13:06:46;101042.38;;;16.69;55.31
65880;BME280;52661;51.364;6.054;2023-04-10T13:09:12;101025.84;;;16.53;55.47
65880;BME280;52661;51.364;6.054;2023-04-10T13:11:38;101017.16;;;16.58;56.93
65880;BME280;52661;51.364;6.054;2023-04-10T13:14:04;101028.69;;;16.69;56.96
65880;BME280;52661;51.364;6.054;2023-04-10T13:16:29;101017.16;;;16.58;56.89
65880;BME280;52661;51.364;6.054;2023-04-10T13:18:54;101019.94;;;16.54;56.38
65880;BME280;52661;51.364;6.054;2023-04-10T13:21:20;101007.16;;;16.48;56.07
65880;BME280;52661;51.364;6.054;2023-04-10T13:23:47;100999.78;;;16.45;56.74
65880;BME280;52661;51.364;6.054;2023-04-10T13:26:12;100993.94;;;16.43;57.30
65880;BME280;52661;51.364;6.054;2023-04-10T13:28:38;100998.84;;;16.51;57.79
65880;BME280;52661;51.364;6.054;2023-04-10T13:31:03;100985.09;;;16.55;58.12
65880;BME280;52661;51.364;6.054;2023-04-10T13:33:28;100970.56;;;16.58;57.27
65880;BME280;52661;51.364;6.054;2023-04-10T13:35:54;100967.81;;;16.58;56.98
65880;BME280;52661;51.364;6.054;2023-04-10T13:38:19;100961.28;;;16.52;57.56
65880;BME280;52661;51.364;6.054;2023-04-10T13:40:44;100968.59;;;16.58;58.45
65880;BME280;52661;51.364;6.054;2023-04-10T13:43:09;100950.97;;;16.59;58.22
65880;BME280;52661;51.364;6.054;2023-04-10T13:45:35;100947.88;;;16.57;56.95